sensor_id;sensor_type;location;lat;lon;timestamp;P1;durP1;ratioP1;P2;durP2;ratioP2
51036;SDS011;37064;59.346;18.058;2022-11-20T00:00:01;4.95;;;1.63;;
51036;SDS011;37064;59.346;18.058;2022-11-20T00:02:27;4.88;;;1.65;;
51036;SDS011;37064;59.346;18.058;2022-11-20T00:04:53;5.25;;;2.30;;
51036;SDS011;37064;59.346;18.058;2022-11-20T00:07:19;3.38;;;2.00;;
51036;SDS011;37064;59.346;18.058;2022-11-20T00:09:45;4.72;;;1.90;;
51036;SDS011;37064;59.346;18.058;2022-11-20T00:12:11;3.28;;;1.92;;
51036;SDS011;37064;59.346;18.058;2022-11-20T00:14:37;2.70;;;1.75;;
51036;SDS011;37064;59.346;18.058;2022-11-20T00:17:03;2.90;;;1.45;;
51036;SDS011;37064;59.346;18.058;2022-11-20T00:19:29;4.00;;;1.80;;
51036;SDS011;37064;59.346;18.058;2022-11-20T00:21:55;5.22;;;1.83;;
51036;SDS011;37064;59.346;18.058;2022-11-20T00:24:21;2.28;;;1.63;;
51036;SDS011;37064;59.346;18.058;2022-11-20T00:26:47;4.30;;;2.33;;
51036;SDS011;37064;59.346;18.058;2022-11-20T00:29:13;3.63;;;1.60;;
51036;SDS011;37064;59.346;18.058;2022-11-20T00:31:39;3.67;;;1.75;;
51036;SDS011;37064;59.346;18.058;2022-11-20T00:34:05;3.38;;;1.90;;
51036;SDS011;37064;59.346;18.058;2022-11-20T00:36:32;3.47;;;1.58;;
51036;SDS011;37064;59.346;18.058;2022-11-20T00:38:58;3.10;;;1.80;;
51036;SDS011;37064;59.346;18.058;2022-11-20T00:41:25;2.40;;;1.67;;
51036;SDS011;37064;59.346;18.058;2022-11-20T00:43:52;2.75;;;2.10;;
51036;SDS011;37064;59.346;18.058;2022-11-20T00:46:19;3.15;;;1.65;;
51036;SDS011;37064;59.346;18.058;2022-11-20T00:48:46;2.15;;;1.60;;
51036;SDS011;37064;59.346;18.058;2022-11-20T00:51:16;2.95;;;1.77;;
51036;SDS011;37064;59.346;18.058;2022-11-20T00:53:42;3.45;;;1.70;;
51036;SDS011;37064;59.346;18.058;2022-11-20T00:56:12;4.45;;;1.98;;
51036;SDS011;37064;59.346;18.058;2022-11-20T00:58:39;2.20;;;1.45;;
51036;SDS011;37064;59.346;18.058;2022-11-20T01:01:07;3.13;;;1.63;;
51036;SDS011;37064;59.346;18.058;2022-11-20T01:03:33;3.30;;;1.60;;
51036;SDS011;37064;59.346;18.058;2022-11-20T01:06:00;2.78;;;1.70;;
51036;SDS011;37064;59.346;18.058;2022-11-20T01:08:30;3.22;;;1.90;;
51036;SDS011;37064;59.346;18.058;2022-11-20T01:11:03;2.88;;;1.65;;
51036;SDS011;37064;59.346;18.058;2022-11-20T01:13:30;3.63;;;1.52;;
51036;SDS011;37064;59.346;18.058;2022-11-20T01:16:04;3.17;;;1.70;;
51036;SDS011;37064;59.346;18.058;2022-11-20T01:18:30;2.55;;;1.88;;
51036;SDS011;37064;59.346;18.058;2022-11-20T01:20:59;4.47;;;2.67;;
51036;SDS011;37064;59.346;18.058;2022-11-20T01:23:26;4.00;;;2.15;;
51036;SDS011;37064;59.346;18.058;2022-11-20T01:25:52;2.20;;;1.58;;
51036;SDS011;37064;59.346;18.058;2022-11-20T01:28:18;2.88;;;1.92;;
51036;SDS011;37064;59.346;18.058;2022-11-20T01:30:44;2.00;;;1.58;;
51036;SDS011;37064;59.346;18.058;2022-11-20T01:33:10;2.47;;;1.33;;
51036;SDS011;37064;59.346;18.058;2022-11-20T01:35:36;4.10;;;1.65;;
51036;SDS011;37064;59.346;18.058;2022-11-20T01:38:02;3.00;;;1.90;;
51036;SDS011;37064;59.346;18.058;2022-11-20T01:40:27;2.95;;;1.60;;
51036;SDS011;37064;59.346;18.058;2022-11-20T01:42:57;2.70;;;2.05;;
51036;SDS011;37064;59.346;18.058;2022-11-20T01:48:17;2.28;;;1.45;;
51036;SDS011;37064;59.346;18.058;2022-11-20T01:50:43;2.22;;;1.42;;
51036;SDS011;37064;59.346;18.058;2022-11-20T01:53:11;2.38;;;1.60;;
51036;SDS011;37064;59.346;18.058;2022-11-20T01:55:43;2.05;;;1.50;;
51036;SDS011;37064;59.346;18.058;2022-11-20T01:58:09;2.03;;;1.52;;
51036;SDS011;37064;59.346;18.058;2022-11-20T02:00:35;2.75;;;1.90;;
51036;SDS011;37064;59.346;18.058;2022-11-20T02:03:05;2.13;;;1.50;;
51036;SDS011;37064;59.346;18.058;2022-11-20T02:05:34;3.72;;;1.75;;
51036;SDS011;37064;59.346;18.058;2022-11-20T02:08:01;2.20;;;1.30;;
51036;SDS011;37064;59.346;18.058;2022-11-20T02:10:28;2.60;;;1.77;;
51036;SDS011;37064;59.346;18.058;2022-11-20T02:12:54;2.50;;;1.50;;
51036;SDS011;37064;59.346;18.058;2022-11-20T02:15:39;2.63;;;2.03;;
51036;SDS011;37064;59.346;18.058;2022-11-20T02:18:05;3.30;;;1.75;;
51036;SDS011;37064;59.346;18.058;2022-11-20T02:20:32;1.98;;;1.60;;
51036;SDS011;37064;59.346;18.058;2022-11-20T02:23:03;3.58;;;1.70;;
51036;SDS011;37064;59.346;18.058;2022-11-20T02:25:30;3.42;;;1.60;;
51036;SDS011;37064;59.346;18.058;2022-11-20T02:27:57;3.92;;;1.80;;
51036;SDS011;37064;59.346;18.058;2022-11-20T02:30:23;3.38;;;1.83;;
51036;SDS011;37064;59.346;18.058;2022-11-20T02:32:49;2.22;;;1.55;;
51036;SDS011;37064;59.346;18.058;2022-11-20T02:37:44;3.63;;;1.80;;
51036;SDS011;37064;59.346;18.058;2022-11-20T02:40:13;2.70;;;1.63;;
51036;SDS011;37064;59.346;18.058;2022-11-20T02:42:39;2.90;;;1.58;;
51036;SDS011;37064;59.346;18.058;2022-11-20T02:45:05;3.22;;;1.40;;
51036;SDS011;37064;59.346;18.058;2022-11-20T02:47:31;2.08;;;1.52;;
51036;SDS011;37064;59.346;18.058;2022-11-20T02:49:58;3.85;;;1.60;;
51036;SDS011;37064;59.346;18.058;2022-11-20T02:52:24;3.42;;;1.88;;
51036;SDS011;37064;59.346;18.058;2022-11-20T02:54:50;2.35;;;1.50;;
51036;SDS011;37064;59.346;18.058;2022-11-20T02:57:16;3.92;;;1.70;;
51036;SDS011;37064;59.346;18.058;2022-11-20T02:59:42;2.50;;;1.45;;
51036;SDS011;37064;59.346;18.058;2022-11-20T03:02:08;2.72;;;1.70;;
51036;SDS011;37064;59.346;18.058;2022-11-20T03:04:34;3.38;;;1.85;;
51036;SDS011;37064;59.346;18.058;2022-11-20T03:07:00;1.83;;;1.40;;
51036;SDS011;37064;59.346;18.058;2022-11-20T03:09:26;2.78;;;1.70;;
51036;SDS011;37064;59.346;18.058;2022-11-20T03:11:52;3.28;;;2.35;;
51036;SDS011;37064;59.346;18.058;2022-11-20T03:14:18;2.90;;;1.60;;
51036;SDS011;37064;59.346;18.058;2022-11-20T03:16:44;1.98;;;1.40;;
51036;SDS011;37064;59.346;18.058;2022-11-20T03:19:11;2.03;;;1.70;;
51036;SDS011;37064;59.346;18.058;2022-11-20T03:21:37;1.90;;;1.33;;
51036;SDS011;37064;59.346;18.058;2022-11-20T03:24:03;1.88;;;1.25;;
51036;SDS011;37064;59.346;18.058;2022-11-20T03:26:29;5.60;;;2.53;;
51036;SDS011;37064;59.346;18.058;2022-11-20T03:28:56;1.85;;;1.20;;
51036;SDS011;37064;59.346;18.058;2022-11-20T03:31:26;2.08;;;1.40;;
51036;SDS011;37064;59.346;18.058;2022-11-20T03:33:53;5.63;;;1.88;;
51036;SDS011;37064;59.346;18.058;2022-11-20T03:36:19;2.30;;;1.77;;
51036;SDS011;37064;59.346;18.058;2022-11-20T03:38:46;2.10;;;1.52;;
51036;SDS011;37064;59.346;18.058;2022-11-20T03:41:13;3.03;;;1.30;;
51036;SDS011;37064;59.346;18.058;2022-11-20T03:43:40;1.65;;;1.42;;
51036;SDS011;37064;59.346;18.058;2022-11-20T03:46:06;1.88;;;1.38;;
51036;SDS011;37064;59.346;18.058;2022-11-20T03:48:33;1.58;;;1.13;;
51036;SDS011;37064;59.346;18.058;2022-11-20T03:51:16;5.28;;;1.48;;
51036;SDS011;37064;59.346;18.058;2022-11-20T03:53:42;1.85;;;1.10;;
51036;SDS011;37064;59.346;18.058;2022-11-20T03:56:09;2.90;;;1.60;;
51036;SDS011;37064;59.346;18.058;2022-11-20T03:58:36;1.30;;;1.10;;
51036;SDS011;37064;59.346;18.058;2022-11-20T04:01:05;1.35;;;1.15;;
51036;SDS011;37064;59.346;18.058;2022-11-20T04:03:31;3.22;;;1.10;;
51036;SDS011;37064;59.346;18.058;2022-11-20T04:06:04;2.75;;;1.77;;
51036;SDS011;37064;59.346;18.058;2022-11-20T04:08:31;2.30;;;1.38;;
51036;SDS011;37064;59.346;18.058;2022-11-20T04:11:07;2.28;;;1.25;;
51036;SDS011;37064;59.346;18.058;2022-11-20T04:13:33;2.33;;;1.45;;
51036;SDS011;37064;59.346;18.058;2022-11-20T04:15:59;2.40;;;1.60;;
51036;SDS011;37064;59.346;18.058;2022-11-20T04:18:25;2.30;;;0.95;;
51036;SDS011;37064;59.346;18.058;2022-11-20T04:20:51;1.77;;;1.23;;
51036;SDS011;37064;59.346;18.058;2022-11-20T04:23:17;1.75;;;1.38;;
51036;SDS011;37064;59.346;18.058;2022-11-20T04:25:43;1.35;;;1.08;;
51036;SDS011;37064;59.346;18.058;2022-11-20T04:28:09;1.30;;;1.10;;
51036;SDS011;37064;59.346;18.058;2022-11-20T04:30:35;6.60;;;1.52;;
51036;SDS011;37064;59.346;18.058;2022-11-20T04:33:01;2.72;;;1.10;;
51036;SDS011;37064;59.346;18.058;2022-11-20T04:35:27;2.03;;;1.30;;
51036;SDS011;37064;59.346;18.058;2022-11-20T04:37:53;3.58;;;1.45;;
51036;SDS011;37064;59.346;18.058;2022-11-20T04:40:19;2.50;;;1.25;;
51036;SDS011;37064;59.346;18.058;2022-11-20T04:42:45;1.35;;;0.90;;
51036;SDS011;37064;59.346;18.058;2022-11-20T04:45:11;2.55;;;1.00;;
51036;SDS011;37064;59.346;18.058;2022-11-20T04:47:37;2.25;;;1.20;;
51036;SDS011;37064;59.346;18.058;2022-11-20T04:50:03;2.28;;;1.45;;
51036;SDS011;37064;59.346;18.058;2022-11-20T04:52:29;1.05;;;0.88;;
51036;SDS011;37064;59.346;18.058;2022-11-20T04:54:55;1.73;;;0.95;;
51036;SDS011;37064;59.346;18.058;2022-11-20T04:57:21;2.05;;;1.00;;
51036;SDS011;37064;59.346;18.058;2022-11-20T04:59:47;3.28;;;1.23;;
51036;SDS011;37064;59.346;18.058;2022-11-20T05:02:13;3.28;;;1.23;;
51036;SDS011;37064;59.346;18.058;2022-11-20T05:04:39;2.33;;;1.35;;
51036;SDS011;37064;59.346;18.058;2022-11-20T05:07:05;2.90;;;0.82;;
51036;SDS011;37064;59.346;18.058;2022-11-20T05:09:31;3.22;;;1.02;;
51036;SDS011;37064;59.346;18.058;2022-11-20T05:11:57;1.40;;;1.05;;
51036;SDS011;37064;59.346;18.058;2022-11-20T05:14:23;1.55;;;1.33;;
51036;SDS011;37064;59.346;18.058;2022-11-20T05:16:49;1.88;;;1.23;;
51036;SDS011;37064;59.346;18.058;2022-11-20T05:19:15;1.30;;;0.90;;
51036;SDS011;37064;59.346;18.058;2022-11-20T05:21:41;1.30;;;1.20;;
51036;SDS011;37064;59.346;18.058;2022-11-20T05:24:07;1.42;;;1.20;;
51036;SDS011;37064;59.346;18.058;2022-11-20T05:26:33;1.50;;;1.15;;
51036;SDS011;37064;59.346;18.058;2022-11-20T05:28:59;1.40;;;1.02;;
51036;SDS011;37064;59.346;18.058;2022-11-20T05:31:25;1.55;;;1.10;;
51036;SDS011;37064;59.346;18.058;2022-11-20T05:33:51;2.20;;;1.10;;
51036;SDS011;37064;59.346;18.058;2022-11-20T05:36:17;1.60;;;1.00;;
51036;SDS011;37064;59.346;18.058;2022-11-20T05:38:43;2.50;;;1.08;;
51036;SDS011;37064;59.346;18.058;2022-11-20T05:43:36;1.45;;;1.05;;
51036;SDS011;37064;59.346;18.058;2022-11-20T05:46:03;2.17;;;1.20;;
51036;SDS011;37064;59.346;18.058;2022-11-20T05:48:29;4.25;;;1.20;;
51036;SDS011;37064;59.346;18.058;2022-11-20T05:50:56;3.70;;;1.40;;
51036;SDS011;37064;59.346;18.058;2022-11-20T05:53:23;2.83;;;1.27;;
51036;SDS011;37064;59.346;18.058;2022-11-20T05:55:55;1.48;;;1.02;;
51036;SDS011;37064;59.346;18.058;2022-11-20T05:58:21;2.20;;;1.30;;
51036;SDS011;37064;59.346;18.058;2022-11-20T06:00:47;1.77;;;1.00;;
51036;SDS011;37064;59.346;18.058;2022-11-20T06:03:13;1.75;;;0.98;;
51036;SDS011;37064;59.346;18.058;2022-11-20T06:05:39;1.63;;;1.13;;
51036;SDS011;37064;59.346;18.058;2022-11-20T06:08:05;1.58;;;0.90;;
51036;SDS011;37064;59.346;18.058;2022-11-20T06:10:31;1.73;;;1.35;;
51036;SDS011;37064;59.346;18.058;2022-11-20T06:12:58;2.42;;;1.20;;
51036;SDS011;37064;59.346;18.058;2022-11-20T06:15:24;1.95;;;1.35;;
51036;SDS011;37064;59.346;18.058;2022-11-20T06:17:53;1.77;;;1.25;;
51036;SDS011;37064;59.346;18.058;2022-11-20T06:20:20;1.65;;;1.40;;
51036;SDS011;37064;59.346;18.058;2022-11-20T06:22:46;1.83;;;1.15;;
51036;SDS011;37064;59.346;18.058;2022-11-20T06:25:12;1.77;;;1.10;;
51036;SDS011;37064;59.346;18.058;2022-11-20T06:27:38;2.28;;;1.17;;
51036;SDS011;37064;59.346;18.058;2022-11-20T06:30:04;1.70;;;1.13;;
51036;SDS011;37064;59.346;18.058;2022-11-20T06:32:30;2.10;;;1.27;;
51036;SDS011;37064;59.346;18.058;2022-11-20T06:34:57;3.75;;;1.60;;
51036;SDS011;37064;59.346;18.058;2022-11-20T06:37:22;1.83;;;1.30;;
51036;SDS011;37064;59.346;18.058;2022-11-20T06:39:48;2.70;;;1.27;;
51036;SDS011;37064;59.346;18.058;2022-11-20T06:42:14;1.45;;;1.15;;
51036;SDS011;37064;59.346;18.058;2022-11-20T06:44:40;1.88;;;1.00;;
51036;SDS011;37064;59.346;18.058;2022-11-20T06:47:06;3.60;;;1.23;;
51036;SDS011;37064;59.346;18.058;2022-11-20T06:49:32;1.83;;;1.17;;
51036;SDS011;37064;59.346;18.058;2022-11-20T06:51:59;1.20;;;1.10;;
51036;SDS011;37064;59.346;18.058;2022-11-20T06:54:25;2.05;;;1.17;;
51036;SDS011;37064;59.346;18.058;2022-11-20T06:56:51;1.73;;;1.10;;
51036;SDS011;37064;59.346;18.058;2022-11-20T06:59:17;2.95;;;1.30;;
51036;SDS011;37064;59.346;18.058;2022-11-20T07:01:43;1.70;;;1.38;;
51036;SDS011;37064;59.346;18.058;2022-11-20T07:04:09;3.47;;;1.35;;
51036;SDS011;37064;59.346;18.058;2022-11-20T07:06:35;2.83;;;1.15;;
51036;SDS011;37064;59.346;18.058;2022-11-20T07:09:01;3.30;;;1.10;;
51036;SDS011;37064;59.346;18.058;2022-11-20T07:11:27;1.15;;;1.00;;
51036;SDS011;37064;59.346;18.058;2022-11-20T07:13:53;1.60;;;1.08;;
51036;SDS011;37064;59.346;18.058;2022-11-20T07:16:19;2.25;;;1.10;;
51036;SDS011;37064;59.346;18.058;2022-11-20T07:18:45;2.03;;;1.20;;
51036;SDS011;37064;59.346;18.058;2022-11-20T07:21:11;1.33;;;0.90;;
51036;SDS011;37064;59.346;18.058;2022-11-20T07:23:37;1.75;;;1.00;;
51036;SDS011;37064;59.346;18.058;2022-11-20T07:26:04;2.22;;;1.10;;
51036;SDS011;37064;59.346;18.058;2022-11-20T07:28:30;2.00;;;1.33;;
51036;SDS011;37064;59.346;18.058;2022-11-20T07:30:56;1.48;;;1.08;;
51036;SDS011;37064;59.346;18.058;2022-11-20T07:33:22;2.58;;;1.10;;
51036;SDS011;37064;59.346;18.058;2022-11-20T07:35:48;1.83;;;1.00;;
51036;SDS011;37064;59.346;18.058;2022-11-20T07:38:14;2.90;;;1.10;;
51036;SDS011;37064;59.346;18.058;2022-11-20T07:40:40;2.78;;;1.10;;
51036;SDS011;37064;59.346;18.058;2022-11-20T07:43:06;1.80;;;1.10;;
51036;SDS011;37064;59.346;18.058;2022-11-20T07:45:32;1.40;;;1.10;;
51036;SDS011;37064;59.346;18.058;2022-11-20T07:47:58;2.05;;;1.02;;
51036;SDS011;37064;59.346;18.058;2022-11-20T07:50:24;2.00;;;1.20;;
51036;SDS011;37064;59.346;18.058;2022-11-20T07:52:50;2.53;;;1.70;;
51036;SDS011;37064;59.346;18.058;2022-11-20T07:55:17;2.42;;;1.27;;
51036;SDS011;37064;59.346;18.058;2022-11-20T07:57:43;1.40;;;1.20;;
51036;SDS011;37064;59.346;18.058;2022-11-20T08:00:10;2.33;;;0.98;;
51036;SDS011;37064;59.346;18.058;2022-11-20T08:02:37;4.00;;;1.05;;
51036;SDS011;37064;59.346;18.058;2022-11-20T08:05:04;1.38;;;1.10;;
51036;SDS011;37064;59.346;18.058;2022-11-20T08:07:34;2.20;;;0.95;;
51036;SDS011;37064;59.346;18.058;2022-11-20T08:10:00;1.88;;;1.23;;
51036;SDS011;37064;59.346;18.058;2022-11-20T08:12:26;2.65;;;1.10;;
51036;SDS011;37064;59.346;18.058;2022-11-20T08:15:11;3.42;;;0.93;;
51036;SDS011;37064;59.346;18.058;2022-11-20T08:17:37;3.08;;;1.60;;
51036;SDS011;37064;59.346;18.058;2022-11-20T08:20:03;2.50;;;1.40;;
51036;SDS011;37064;59.346;18.058;2022-11-20T08:22:29;3.15;;;1.40;;
51036;SDS011;37064;59.346;18.058;2022-11-20T08:24:55;1.23;;;0.90;;
51036;SDS011;37064;59.346;18.058;2022-11-20T08:27:21;0.98;;;0.70;;
51036;SDS011;37064;59.346;18.058;2022-11-20T08:29:47;1.77;;;1.15;;
51036;SDS011;37064;59.346;18.058;2022-11-20T08:32:13;1.92;;;0.90;;
51036;SDS011;37064;59.346;18.058;2022-11-20T08:34:39;1.60;;;1.05;;
51036;SDS011;37064;59.346;18.058;2022-11-20T08:37:05;1.17;;;0.85;;
51036;SDS011;37064;59.346;18.058;2022-11-20T08:39:31;1.63;;;1.13;;
51036;SDS011;37064;59.346;18.058;2022-11-20T08:41:57;1.52;;;0.80;;
51036;SDS011;37064;59.346;18.058;2022-11-20T08:44:23;1.30;;;1.02;;
51036;SDS011;37064;59.346;18.058;2022-11-20T08:46:49;1.38;;;0.80;;
51036;SDS011;37064;59.346;18.058;2022-11-20T08:49:15;2.03;;;1.17;;
51036;SDS011;37064;59.346;18.058;2022-11-20T08:51:41;1.98;;;0.98;;
51036;SDS011;37064;59.346;18.058;2022-11-20T08:54:08;3.30;;;0.95;;
51036;SDS011;37064;59.346;18.058;2022-11-20T08:56:34;1.52;;;0.73;;
51036;SDS011;37064;59.346;18.058;2022-11-20T08:59:00;1.02;;;0.90;;
51036;SDS011;37064;59.346;18.058;2022-11-20T09:01:26;2.15;;;1.00;;
51036;SDS011;37064;59.346;18.058;2022-11-20T09:03:54;2.35;;;0.93;;
51036;SDS011;37064;59.346;18.058;2022-11-20T09:06:21;3.47;;;0.90;;
51036;SDS011;37064;59.346;18.058;2022-11-20T09:08:47;3.20;;;0.90;;
51036;SDS011;37064;59.346;18.058;2022-11-20T09:11:13;1.55;;;1.10;;
51036;SDS011;37064;59.346;18.058;2022-11-20T09:13:39;0.82;;;0.77;;
51036;SDS011;37064;59.346;18.058;2022-11-20T09:16:06;1.50;;;0.88;;
51036;SDS011;37064;59.346;18.058;2022-11-20T09:18:32;2.22;;;0.98;;
51036;SDS011;37064;59.346;18.058;2022-11-20T09:21:01;1.77;;;0.90;;
51036;SDS011;37064;59.346;18.058;2022-11-20T09:23:30;1.60;;;0.90;;
51036;SDS011;37064;59.346;18.058;2022-11-20T09:25:56;1.23;;;0.80;;
51036;SDS011;37064;59.346;18.058;2022-11-20T09:28:24;2.60;;;1.33;;
51036;SDS011;37064;59.346;18.058;2022-11-20T09:30:50;2.15;;;1.23;;
51036;SDS011;37064;59.346;18.058;2022-11-20T09:33:17;1.13;;;0.75;;
51036;SDS011;37064;59.346;18.058;2022-11-20T09:35:43;2.85;;;0.90;;
51036;SDS011;37064;59.346;18.058;2022-11-20T09:38:09;2.35;;;1.00;;
51036;SDS011;37064;59.346;18.058;2022-11-20T09:40:38;1.00;;;0.90;;
51036;SDS011;37064;59.346;18.058;2022-11-20T09:56:16;2.07;;;1.03;;
51036;SDS011;37064;59.346;18.058;2022-11-20T09:58:47;2.30;;;0.98;;
51036;SDS011;37064;59.346;18.058;2022-11-20T10:01:18;1.88;;;0.80;;
51036;SDS011;37064;59.346;18.058;2022-11-20T10:06:15;1.83;;;1.15;;
51036;SDS011;37064;59.346;18.058;2022-11-20T10:08:49;1.15;;;0.80;;
51036;SDS011;37064;59.346;18.058;2022-11-20T10:24:10;0.82;;;0.68;;
51036;SDS011;37064;59.346;18.058;2022-11-20T10:26:43;1.88;;;0.82;;
51036;SDS011;37064;59.346;18.058;2022-11-20T10:29:15;1.13;;;0.68;;
51036;SDS011;37064;59.346;18.058;2022-11-20T10:31:43;0.90;;;0.60;;
51036;SDS011;37064;59.346;18.058;2022-11-20T10:37:05;1.15;;;0.80;;
51036;SDS011;37064;59.346;18.058;2022-11-20T10:39:39;1.17;;;0.82;;
51036;SDS011;37064;59.346;18.058;2022-11-20T10:42:15;2.63;;;0.70;;
51036;SDS011;37064;59.346;18.058;2022-11-20T10:44:43;1.08;;;0.80;;
51036;SDS011;37064;59.346;18.058;2022-11-20T10:47:30;2.85;;;1.08;;
51036;SDS011;37064;59.346;18.058;2022-11-20T10:49:57;2.88;;;0.70;;
51036;SDS011;37064;59.346;18.058;2022-11-20T10:52:31;1.83;;;0.90;;
51036;SDS011;37064;59.346;18.058;2022-11-20T10:55:01;2.25;;;0.95;;
51036;SDS011;37064;59.346;18.058;2022-11-20T11:00:18;1.13;;;1.00;;
51036;SDS011;37064;59.346;18.058;2022-11-20T11:07:58;0.80;;;0.70;;
51036;SDS011;37064;59.346;18.058;2022-11-20T11:10:26;1.33;;;0.82;;
51036;SDS011;37064;59.346;18.058;2022-11-20T11:12:54;1.02;;;0.60;;
51036;SDS011;37064;59.346;18.058;2022-11-20T11:15:28;1.55;;;0.63;;
51036;SDS011;37064;59.346;18.058;2022-11-20T11:17:54;1.00;;;0.90;;
51036;SDS011;37064;59.346;18.058;2022-11-20T11:20:21;2.60;;;0.80;;
51036;SDS011;37064;59.346;18.058;2022-11-20T11:25:27;1.98;;;0.80;;
51036;SDS011;37064;59.346;18.058;2022-11-20T11:27:54;2.15;;;0.60;;
51036;SDS011;37064;59.346;18.058;2022-11-20T11:30:21;1.45;;;0.63;;
51036;SDS011;37064;59.346;18.058;2022-11-20T11:32:47;1.45;;;0.60;;
51036;SDS011;37064;59.346;18.058;2022-11-20T11:35:24;2.53;;;0.73;;
51036;SDS011;37064;59.346;18.058;2022-11-20T11:37:51;0.80;;;0.60;;
51036;SDS011;37064;59.346;18.058;2022-11-20T11:40:19;1.70;;;1.02;;
51036;SDS011;37064;59.346;18.058;2022-11-20T11:42:54;1.67;;;1.05;;
51036;SDS011;37064;59.346;18.058;2022-11-20T11:45:20;0.80;;;0.80;;
51036;SDS011;37064;59.346;18.058;2022-11-20T11:47:47;1.95;;;0.88;;
51036;SDS011;37064;59.346;18.058;2022-11-20T11:50:20;1.17;;;0.90;;
51036;SDS011;37064;59.346;18.058;2022-11-20T11:53:08;2.33;;;0.85;;
51036;SDS011;37064;59.346;18.058;2022-11-20T11:58:19;1.15;;;0.85;;
51036;SDS011;37064;59.346;18.058;2022-11-20T12:01:07;2.15;;;0.93;;
51036;SDS011;37064;59.346;18.058;2022-11-20T12:03:35;2.05;;;1.13;;
51036;SDS011;37064;59.346;18.058;2022-11-20T12:06:05;1.38;;;0.80;;
51036;SDS011;37064;59.346;18.058;2022-11-20T12:15:59;0.90;;;0.75;;
51036;SDS011;37064;59.346;18.058;2022-11-20T12:18:26;1.02;;;0.60;;
51036;SDS011;37064;59.346;18.058;2022-11-20T12:26:05;2.70;;;0.80;;
51036;SDS011;37064;59.346;18.058;2022-11-20T12:31:08;1.80;;;0.73;;
51036;SDS011;37064;59.346;18.058;2022-11-20T12:36:40;4.53;;;2.00;;
51036;SDS011;37064;59.346;18.058;2022-11-20T12:41:44;3.50;;;1.77;;
51036;SDS011;37064;59.346;18.058;2022-11-20T12:44:38;4.43;;;1.60;;
51036;SDS011;37064;59.346;18.058;2022-11-20T12:47:33;4.40;;;1.90;;
51036;SDS011;37064;59.346;18.058;2022-11-20T12:50:10;5.40;;;2.33;;
51036;SDS011;37064;59.346;18.058;2022-11-20T13:00:26;2.83;;;1.30;;
51036;SDS011;37064;59.346;18.058;2022-11-20T13:07:53;3.55;;;2.03;;
51036;SDS011;37064;59.346;18.058;2022-11-20T13:10:37;3.92;;;1.75;;
51036;SDS011;37064;59.346;18.058;2022-11-20T13:13:11;5.00;;;3.00;;
51036;SDS011;37064;59.346;18.058;2022-11-20T13:15:45;3.75;;;2.05;;
51036;SDS011;37064;59.346;18.058;2022-11-20T13:18:14;4.55;;;2.08;;
51036;SDS011;37064;59.346;18.058;2022-11-20T13:20:41;10.40;;;3.55;;
51036;SDS011;37064;59.346;18.058;2022-11-20T13:23:08;8.73;;;4.03;;
51036;SDS011;37064;59.346;18.058;2022-11-20T13:25:35;5.53;;;3.17;;
51036;SDS011;37064;59.346;18.058;2022-11-20T13:28:24;3.72;;;2.17;;
51036;SDS011;37064;59.346;18.058;2022-11-20T13:30:53;5.85;;;3.47;;
51036;SDS011;37064;59.346;18.058;2022-11-20T13:33:25;6.97;;;3.33;;
51036;SDS011;37064;59.346;18.058;2022-11-20T13:36:35;9.90;;;3.63;;
51036;SDS011;37064;59.346;18.058;2022-11-20T13:38:52;3.05;;;1.80;;
51036;SDS011;37064;59.346;18.058;2022-11-20T13:41:25;3.70;;;2.10;;
51036;SDS011;37064;59.346;18.058;2022-11-20T13:43:58;4.00;;;2.00;;
51036;SDS011;37064;59.346;18.058;2022-11-20T13:46:34;8.48;;;4.25;;
51036;SDS011;37064;59.346;18.058;2022-11-20T13:49:05;4.78;;;2.35;;
51036;SDS011;37064;59.346;18.058;2022-11-20T13:51:49;5.03;;;2.83;;
51036;SDS011;37064;59.346;18.058;2022-11-20T14:02:25;3.40;;;2.10;;
51036;SDS011;37064;59.346;18.058;2022-11-20T14:04:53;3.92;;;1.45;;
51036;SDS011;37064;59.346;18.058;2022-11-20T14:07:20;2.20;;;1.23;;
51036;SDS011;37064;59.346;18.058;2022-11-20T14:09:54;4.57;;;1.65;;
51036;SDS011;37064;59.346;18.058;2022-11-20T14:12:23;2.88;;;1.70;;
51036;SDS011;37064;59.346;18.058;2022-11-20T14:14:53;2.13;;;1.50;;
51036;SDS011;37064;59.346;18.058;2022-11-20T14:17:23;2.03;;;1.40;;
51036;SDS011;37064;59.346;18.058;2022-11-20T14:19:51;2.72;;;1.70;;
51036;SDS011;37064;59.346;18.058;2022-11-20T14:22:24;2.45;;;1.10;;
51036;SDS011;37064;59.346;18.058;2022-11-20T14:27:39;3.03;;;1.17;;
51036;SDS011;37064;59.346;18.058;2022-11-20T14:30:11;2.72;;;1.45;;
51036;SDS011;37064;59.346;18.058;2022-11-20T14:32:38;3.65;;;1.83;;
51036;SDS011;37064;59.346;18.058;2022-11-20T14:35:08;3.22;;;1.27;;
51036;SDS011;37064;59.346;18.058;2022-11-20T14:37:36;1.20;;;1.05;;
51036;SDS011;37064;59.346;18.058;2022-11-20T14:40:05;2.75;;;1.25;;
51036;SDS011;37064;59.346;18.058;2022-11-20T14:42:31;2.15;;;1.30;;
51036;SDS011;37064;59.346;18.058;2022-11-20T14:44:58;1.90;;;1.10;;
51036;SDS011;37064;59.346;18.058;2022-11-20T14:47:28;2.17;;;1.38;;
51036;SDS011;37064;59.346;18.058;2022-11-20T14:49:55;3.78;;;2.50;;
51036;SDS011;37064;59.346;18.058;2022-11-20T14:52:23;3.97;;;1.35;;
51036;SDS011;37064;59.346;18.058;2022-11-20T14:54:50;1.88;;;1.10;;
51036;SDS011;37064;59.346;18.058;2022-11-20T14:59:46;2.95;;;1.70;;
51036;SDS011;37064;59.346;18.058;2022-11-20T15:02:12;4.63;;;2.67;;
51036;SDS011;37064;59.346;18.058;2022-11-20T15:04:56;2.30;;;1.40;;
51036;SDS011;37064;59.346;18.058;2022-11-20T15:07:46;3.38;;;2.08;;
51036;SDS011;37064;59.346;18.058;2022-11-20T15:10:31;3.38;;;1.17;;
51036;SDS011;37064;59.346;18.058;2022-11-20T15:13:01;5.93;;;3.00;;
51036;SDS011;37064;59.346;18.058;2022-11-20T15:18:28;3.85;;;2.33;;
51036;SDS011;37064;59.346;18.058;2022-11-20T15:20:56;3.10;;;1.40;;
51036;SDS011;37064;59.346;18.058;2022-11-20T15:23:23;3.25;;;1.77;;
51036;SDS011;37064;59.346;18.058;2022-11-20T15:25:49;3.97;;;2.10;;
51036;SDS011;37064;59.346;18.058;2022-11-20T15:28:27;3.85;;;1.55;;
51036;SDS011;37064;59.346;18.058;2022-11-20T15:30:55;5.10;;;2.00;;
51036;SDS011;37064;59.346;18.058;2022-11-20T15:33:21;9.82;;;4.28;;
51036;SDS011;37064;59.346;18.058;2022-11-20T15:35:47;3.72;;;2.50;;
51036;SDS011;37064;59.346;18.058;2022-11-20T15:38:13;3.72;;;1.95;;
51036;SDS011;37064;59.346;18.058;2022-11-20T15:40:39;3.97;;;1.95;;
51036;SDS011;37064;59.346;18.058;2022-11-20T15:43:05;4.07;;;1.90;;
51036;SDS011;37064;59.346;18.058;2022-11-20T15:45:33;2.35;;;1.42;;
51036;SDS011;37064;59.346;18.058;2022-11-20T15:48:00;4.88;;;1.88;;
51036;SDS011;37064;59.346;18.058;2022-11-20T15:50:27;2.58;;;1.80;;
51036;SDS011;37064;59.346;18.058;2022-11-20T15:52:54;4.45;;;2.42;;
51036;SDS011;37064;59.346;18.058;2022-11-20T15:55:21;4.07;;;2.15;;
51036;SDS011;37064;59.346;18.058;2022-11-20T15:57:47;5.13;;;2.72;;
51036;SDS011;37064;59.346;18.058;2022-11-20T16:00:13;2.15;;;1.70;;
51036;SDS011;37064;59.346;18.058;2022-11-20T16:02:39;4.25;;;2.10;;
51036;SDS011;37064;59.346;18.058;2022-11-20T16:05:08;3.30;;;2.00;;
51036;SDS011;37064;59.346;18.058;2022-11-20T16:07:35;4.72;;;2.72;;
51036;SDS011;37064;59.346;18.058;2022-11-20T16:10:01;3.78;;;1.95;;
51036;SDS011;37064;59.346;18.058;2022-11-20T16:12:28;4.15;;;2.33;;
51036;SDS011;37064;59.346;18.058;2022-11-20T16:15:13;3.90;;;2.00;;
51036;SDS011;37064;59.346;18.058;2022-11-20T16:17:57;2.85;;;1.52;;
51036;SDS011;37064;59.346;18.058;2022-11-20T16:20:23;1.98;;;1.45;;